Terminal Aerodrome Forecast
Issued by NWS

Home | Current Version | Previous Version | Text Only | Print | Product List | Glossary On
Versions: 1 2 3 4 5 6 7 8 9 10 11 12 13 14 15 16 17 18 19 20 21
384
FTUS46 KMFR 261120
TAFOTH
TAF
KOTH 261120Z 2612/2712 15007KT P6SM -RA SCT005 OVC025
     FM261500 16010KT P6SM -RA SCT010 OVC035
     FM261800 31012G20KT P6SM -SHRA VCTS SCT015CB OVC025
     FM270300 VRB03KT P6SM -SHRA OVC020=

USA.gov is the U.S. government's official web portal to all federal, state and local government web resources and services.